createdAt,value
2023-03-22T00:02:26.164Z,0.68
2023-03-22T00:04:54.571Z,0.82
2023-03-22T00:07:24.049Z,1.52
2023-03-22T00:09:52.172Z,0.88
2023-03-22T00:12:20.244Z,0.90
2023-03-22T00:14:49.455Z,0.80
2023-03-22T00:17:17.685Z,0.75
2023-03-22T00:19:46.454Z,1.55
2023-03-22T00:22:14.672Z,0.52
2023-03-22T00:24:44.289Z,0.75
2023-03-22T00:27:12.392Z,0.93
2023-03-22T00:29:40.721Z,0.60
2023-03-22T00:32:08.889Z,0.60
2023-03-22T00:34:37.043Z,0.68
2023-03-22T00:37:05.328Z,0.57
2023-03-22T00:39:33.503Z,0.52
2023-03-22T00:42:04.436Z,0.60
2023-03-22T00:44:33.052Z,0.68
2023-03-22T00:47:01.544Z,0.73
2023-03-22T00:49:31.263Z,0.50
2023-03-22T00:51:59.508Z,0.50
2023-03-22T00:54:27.633Z,0.98
2023-03-22T00:56:55.884Z,0.45
2023-03-22T00:59:25.264Z,0.28
2023-03-22T01:01:53.437Z,0.60
2023-03-22T01:04:25.892Z,0.55
2023-03-22T01:06:59.371Z,0.75
2023-03-22T01:09:30.925Z,0.40
2023-03-22T01:11:59.944Z,0.63
2023-03-22T01:14:31.848Z,1.63
2023-03-22T01:17:00.166Z,0.73
2023-03-22T01:19:28.551Z,0.30
2023-03-22T01:21:57.655Z,0.50
2023-03-22T01:24:25.933Z,0.68
2023-03-22T01:26:54.226Z,0.28
2023-03-22T01:29:22.376Z,0.30
2023-03-22T01:31:52.901Z,0.65
2023-03-22T01:34:22.337Z,0.85
2023-03-22T01:36:51.412Z,0.45
2023-03-22T01:39:20.081Z,0.55
2023-03-22T01:41:51.221Z,0.38
2023-03-22T01:44:21.866Z,0.52
2023-03-22T01:46:53.102Z,0.70
2023-03-22T01:49:27.735Z,0.47
2023-03-22T01:51:58.678Z,0.20
2023-03-22T01:54:49.194Z,0.60
2023-03-22T01:57:28.806Z,0.98
2023-03-22T02:00:04.023Z,0.30
2023-03-22T02:05:24.152Z,0.10
2023-03-22T02:07:54.381Z,0.35
2023-03-22T02:10:27.625Z,0.63
2023-03-22T02:13:20.248Z,0.22
2023-03-22T02:16:04.636Z,0.25
2023-03-22T02:18:55.972Z,0.17
2023-03-22T02:21:54.666Z,0.43
2023-03-22T02:24:47.004Z,0.20
2023-03-22T02:27:28.802Z,0.30
2023-03-22T02:30:14.281Z,0.35
2023-03-22T02:33:00.183Z,0.20
2023-03-22T02:35:43.219Z,0.13
2023-03-22T02:38:37.999Z,0.28
2023-03-22T02:41:14.970Z,0.22
2023-03-22T02:43:52.863Z,0.15
2023-03-22T02:46:26.206Z,0.20
2023-03-22T02:49:01.898Z,0.40
2023-03-22T02:51:37.352Z,0.47
2023-03-22T02:54:10.925Z,0.25
2023-03-22T02:56:44.813Z,0.45
2023-03-22T02:59:14.703Z,0.77
2023-03-22T03:01:47.416Z,0.10
2023-03-22T03:04:20.563Z,0.10
2023-03-22T03:06:52.179Z,0.00
2023-03-22T03:09:22.481Z,0.05
2023-03-22T03:11:54.000Z,0.05
2023-03-22T03:14:24.955Z,0.30
2023-03-22T03:17:07.635Z,0.17
2023-03-22T03:19:42.317Z,0.00
2023-03-22T03:22:27.424Z,0.25
2023-03-22T03:25:03.222Z,0.10
2023-03-22T03:27:38.571Z,0.45
2023-03-22T03:30:13.584Z,0.32
2023-03-22T03:32:49.204Z,0.10
2023-03-22T03:35:23.443Z,0.20
2023-03-22T03:37:57.661Z,0.10
2023-03-22T03:40:31.795Z,0.03
2023-03-22T03:43:04.655Z,0.20
2023-03-22T03:45:33.409Z,0.30
2023-03-22T03:48:07.089Z,0.10
2023-03-22T03:50:36.202Z,0.27
2023-03-22T03:53:04.632Z,0.13
2023-03-22T03:55:33.567Z,0.08
2023-03-22T03:58:03.059Z,0.10
2023-03-22T04:00:31.357Z,0.10
2023-03-22T04:03:19.518Z,0.10
2023-03-22T04:06:10.974Z,0.10
2023-03-22T04:08:45.604Z,0.10
2023-03-22T04:11:16.786Z,0.10
2023-03-22T04:13:49.480Z,0.00
2023-03-22T04:16:21.583Z,0.10
2023-03-22T04:18:50.224Z,0.10
2023-03-22T04:21:18.349Z,0.10
2023-03-22T04:23:56.165Z,0.03
2023-03-22T04:26:26.649Z,0.10
2023-03-22T04:29:11.408Z,0.10
2023-03-22T04:31:45.393Z,0.10
2023-03-22T04:34:31.509Z,0.13
2023-03-22T04:39:38.326Z,0.00
2023-03-22T04:42:25.373Z,0.20
2023-03-22T04:45:05.827Z,0.20
2023-03-22T04:47:35.972Z,0.08
2023-03-22T04:50:07.939Z,0.13
2023-03-22T04:52:43.297Z,0.00
2023-03-22T04:55:12.238Z,0.10
2023-03-22T04:57:40.549Z,0.00
2023-03-22T05:00:11.001Z,0.08
2023-03-22T05:02:41.512Z,0.00
2023-03-22T05:05:17.801Z,0.00
2023-03-22T05:07:47.501Z,0.05
2023-03-22T05:10:16.020Z,0.10
2023-03-22T05:12:44.361Z,0.10
2023-03-22T05:15:24.223Z,0.00
2023-03-22T05:17:55.770Z,0.00
2023-03-22T05:20:24.996Z,0.28
2023-03-22T05:23:07.521Z,0.20
2023-03-22T05:25:35.849Z,0.20
2023-03-22T05:28:04.198Z,0.10
2023-03-22T05:30:44.472Z,0.20
2023-03-22T05:33:25.261Z,0.30
2023-03-22T05:35:57.272Z,0.13
2023-03-22T05:38:28.157Z,0.15
2023-03-22T05:40:59.205Z,0.15
2023-03-22T05:43:27.634Z,0.05
2023-03-22T05:45:57.115Z,0.30
2023-03-22T05:48:35.971Z,0.50
2023-03-22T05:51:07.382Z,0.43
2023-03-22T05:53:35.938Z,0.43
2023-03-22T05:56:16.736Z,0.22
2023-03-22T05:58:47.846Z,0.90
2023-03-22T06:01:21.463Z,0.52
2023-03-22T06:04:09.448Z,0.63
2023-03-22T06:06:51.485Z,0.80
2023-03-22T06:09:37.933Z,0.22
2023-03-22T06:12:09.689Z,0.50
2023-03-22T06:14:38.576Z,0.80
2023-03-22T06:17:16.071Z,0.40
2023-03-22T06:19:45.158Z,0.80
2023-03-22T06:22:15.030Z,0.57
2023-03-22T06:24:44.220Z,0.68
2023-03-22T06:27:18.977Z,0.47
2023-03-22T06:29:50.749Z,1.02
2023-03-22T06:32:24.662Z,1.50
2023-03-22T06:34:52.861Z,1.20
2023-03-22T06:37:22.722Z,0.80
2023-03-22T06:39:51.357Z,1.33
2023-03-22T06:42:21.544Z,1.58
2023-03-22T06:45:00.998Z,0.93
2023-03-22T06:47:34.312Z,1.13
2023-03-22T06:50:02.497Z,0.63
2023-03-22T06:52:50.566Z,0.47
2023-03-22T06:55:19.236Z,1.15
2023-03-22T06:57:47.386Z,1.15
2023-03-22T07:00:16.666Z,1.70
2023-03-22T07:02:46.245Z,1.27
2023-03-22T07:05:22.422Z,0.73
2023-03-22T07:07:50.797Z,1.15
2023-03-22T07:10:19.177Z,1.63
2023-03-22T07:12:47.357Z,0.90
2023-03-22T07:15:18.800Z,0.90
2023-03-22T07:17:56.521Z,1.25
2023-03-22T07:20:24.701Z,1.30
2023-03-22T07:22:52.843Z,1.63
2023-03-22T07:25:23.458Z,1.20
2023-03-22T07:28:00.869Z,1.50
2023-03-22T07:30:29.792Z,2.13
2023-03-22T07:32:59.343Z,1.50
2023-03-22T07:35:27.990Z,1.45
2023-03-22T07:37:56.551Z,1.90
2023-03-22T07:40:30.967Z,1.42
2023-03-22T07:42:59.971Z,0.93
2023-03-22T07:45:46.630Z,1.15
2023-03-22T07:48:34.862Z,2.03
2023-03-22T07:51:22.905Z,1.02
2023-03-22T07:53:51.497Z,0.98
2023-03-22T07:56:19.715Z,1.52
2023-03-22T07:58:48.389Z,1.23
2023-03-22T08:01:16.565Z,1.52
2023-03-22T08:03:58.387Z,1.17
2023-03-22T08:06:36.946Z,2.05
2023-03-22T08:09:05.799Z,1.52
2023-03-22T08:11:33.920Z,1.83
2023-03-22T08:14:02.097Z,1.80
2023-03-22T08:16:32.930Z,1.42
2023-03-22T08:19:04.246Z,0.90
2023-03-22T08:24:07.448Z,1.13
2023-03-22T08:26:54.595Z,1.15
2023-03-22T08:29:34.038Z,1.05
2023-03-22T08:32:04.521Z,0.90
2023-03-22T08:34:37.978Z,1.38
2023-03-22T08:37:06.626Z,2.25
2023-03-22T08:39:54.244Z,1.52
2023-03-22T08:42:34.652Z,1.48
2023-03-22T08:45:03.881Z,2.15
2023-03-22T08:47:34.406Z,1.83
2023-03-22T08:50:07.016Z,1.80
2023-03-22T08:52:44.882Z,1.33
2023-03-22T08:55:23.485Z,1.38
2023-03-22T08:58:11.322Z,1.20
2023-03-22T09:00:58.115Z,2.35
2023-03-22T09:03:32.171Z,1.83
2023-03-22T09:06:01.735Z,1.95
2023-03-22T09:08:34.254Z,2.13
2023-03-22T09:11:09.891Z,1.85
2023-03-22T09:13:38.362Z,0.95
2023-03-22T09:16:08.926Z,0.63
2023-03-22T09:18:37.402Z,1.08
2023-03-22T09:21:13.460Z,1.27
2023-03-22T09:23:50.914Z,1.00
2023-03-22T09:26:24.185Z,1.45
2023-03-22T09:28:53.807Z,1.67
2023-03-22T09:31:22.102Z,1.52
2023-03-22T09:34:01.261Z,1.77
2023-03-22T09:36:32.345Z,2.30
2023-03-22T09:39:00.934Z,1.48
2023-03-22T09:41:37.942Z,1.75
2023-03-22T09:44:09.704Z,0.95
2023-03-22T09:46:41.907Z,1.23
2023-03-22T09:49:17.274Z,2.90
2023-03-22T09:51:48.728Z,1.67
2023-03-22T09:54:21.453Z,1.75
2023-03-22T09:56:54.494Z,0.68
2023-03-22T09:59:31.810Z,1.25
2023-03-22T10:02:02.620Z,1.75
2023-03-22T10:04:46.165Z,1.15
2023-03-22T10:07:27.192Z,1.65
2023-03-22T10:10:06.853Z,1.73
2023-03-22T10:12:43.900Z,1.45
2023-03-22T10:15:16.166Z,1.05
2023-03-22T10:17:48.018Z,1.92
2023-03-22T10:20:29.800Z,1.10
2023-03-22T10:23:02.477Z,1.30
2023-03-22T10:25:37.271Z,1.45
2023-03-22T10:28:16.549Z,1.20
2023-03-22T10:30:51.033Z,0.40
2023-03-22T10:33:27.180Z,2.15
2023-03-22T10:35:56.908Z,2.25
2023-03-22T10:38:28.732Z,1.02
2023-03-22T10:40:59.447Z,1.33
2023-03-22T10:43:33.377Z,1.70
2023-03-22T10:46:03.866Z,1.48
2023-03-22T10:48:36.294Z,1.42
2023-03-22T10:51:05.350Z,2.47
2023-03-22T10:53:39.634Z,1.77
2023-03-22T10:56:13.983Z,2.25
2023-03-22T10:58:42.245Z,1.25
2023-03-22T11:01:12.234Z,1.33
2023-03-22T11:03:42.770Z,2.00
2023-03-22T11:06:13.638Z,1.38
2023-03-22T11:08:46.554Z,2.13
2023-03-22T11:11:24.236Z,0.85
2023-03-22T11:13:59.588Z,1.98
2023-03-22T11:16:28.035Z,1.73
2023-03-22T11:18:58.280Z,2.05
2023-03-22T11:21:32.279Z,1.45
2023-03-22T11:24:06.479Z,1.67
2023-03-22T11:26:40.586Z,1.83
2023-03-22T11:29:14.786Z,0.98
2023-03-22T11:32:01.728Z,0.82
2023-03-22T11:34:31.748Z,1.00
2023-03-22T11:37:02.000Z,0.88
2023-03-22T11:39:31.630Z,1.25
2023-03-22T11:42:01.686Z,1.45
2023-03-22T11:44:35.494Z,0.90
2023-03-22T11:49:41.218Z,1.60
2023-03-22T11:52:13.833Z,1.40
2023-03-22T11:54:45.793Z,1.70
2023-03-22T11:57:18.560Z,1.13
2023-03-22T11:59:50.053Z,1.57
2023-03-22T12:02:24.879Z,0.88
2023-03-22T12:05:00.844Z,1.23
2023-03-22T12:07:31.975Z,1.02
2023-03-22T12:10:06.458Z,1.20
2023-03-22T12:12:39.801Z,0.80
2023-03-22T12:15:16.647Z,0.95
2023-03-22T12:17:50.367Z,1.15
2023-03-22T12:20:28.633Z,1.60
2023-03-22T12:22:57.788Z,1.88
2023-03-22T12:25:32.601Z,0.95
2023-03-22T12:28:06.325Z,0.88
2023-03-22T12:30:43.070Z,1.10
2023-03-22T12:33:18.754Z,0.85
2023-03-22T12:35:48.493Z,1.25
2023-03-22T12:38:33.897Z,0.93
2023-03-22T12:41:08.171Z,1.13
2023-03-22T12:43:43.443Z,0.52
2023-03-22T12:46:19.495Z,1.33
2023-03-22T12:48:51.684Z,1.17
2023-03-22T12:51:20.032Z,0.93
2023-03-22T12:53:51.911Z,1.50
2023-03-22T12:56:24.711Z,1.15
2023-03-22T12:58:55.862Z,0.90
2023-03-22T13:01:33.339Z,0.52
2023-03-22T13:04:21.634Z,0.80
2023-03-22T13:07:11.767Z,1.40
2023-03-22T13:09:43.394Z,1.40
2023-03-22T13:12:32.855Z,0.47
2023-03-22T13:15:06.302Z,0.60
2023-03-22T13:17:41.767Z,1.10
2023-03-22T13:20:30.863Z,1.00
2023-03-22T13:23:03.113Z,1.90
2023-03-22T13:25:36.010Z,1.25
2023-03-22T13:28:24.666Z,0.68
2023-03-22T13:30:54.555Z,1.13
2023-03-22T13:33:28.266Z,0.75
2023-03-22T13:35:58.996Z,0.95
2023-03-22T13:38:29.992Z,0.70
2023-03-22T13:41:02.767Z,0.32
2023-03-22T13:43:35.330Z,0.70
2023-03-22T13:46:13.998Z,1.40
2023-03-22T13:48:52.279Z,0.57
2023-03-22T13:51:29.288Z,1.27
2023-03-22T13:54:03.524Z,0.73
2023-03-22T13:56:47.861Z,1.73
2023-03-22T13:59:21.823Z,0.93
2023-03-22T14:01:53.296Z,1.10
2023-03-22T14:04:26.849Z,1.15
2023-03-22T14:09:32.393Z,0.75
2023-03-22T14:12:08.046Z,1.08
2023-03-22T14:14:43.162Z,1.00
2023-03-22T14:17:22.982Z,0.90
2023-03-22T14:19:53.460Z,0.77
